KFOT - Fortuna, California, USA
Updated: Wed, 20-Sep-2017 9:15am PDT
Overcast
Overcast
 Wind from calm
Wind: Calm
Temperature: 57°F , 14°C
Dew Point: 57°F , 14°C
Humidity: 100%
Barometer: 29.92 inHg , 1013.2 hPa
Clouds: Overcast
Visibility: 5 miles , 8 km
Cloud details: Few Clouds 400 ft
Mostly Cloudy 800 ft
Overcast 1800 ft
2017/09/20 16:15 KFOT 201615Z AUTO 00000KT 5SM FEW004 BKN008 OVC018 14/14 A2992 RMK AO1

Metar display script from Saratoga-Weather.org